Time;durP1;ratioP1;P1;durP2;ratioP2;P2;SDS_P1;SDS_P2;PMS_P1;PMS_P2;Temp;Humidity;BMP_temperature;BMP_pressure;BME280_temperature;BME280_humidity;BME280_pressure;Samples;Min_cycle;Max_cycle;Signal;HPM_P1;HPM_P2
2023/10/28 00:01:15;;;;;;;22.30;14.93;;;10.10;99.90;;;;;;5062444;28;20127;-71
2023/10/28 00:03:41;;;;;;;23.05;14.77;;;10.10;99.90;;;;;;5070714;28;20049;-71
2023/10/28 00:06:07;;;;;;;23.08;14.85;;;10.10;99.90;;;;;;5067679;28;20036;-71
2023/10/28 00:08:34;;;;;;;22.52;14.65;;;10.10;99.90;;;;;;5073955;28;20044;-71
2023/10/28 00:11:07;;;;;;;20.67;13.90;;;10.10;99.90;;;;;;5078505;28;20044;-72
2023/10/28 00:13:33;;;;;;;20.33;12.82;;;10.10;99.90;;;;;;5068492;28;20044;-73
2023/10/28 00:15:59;;;;;;;18.80;12.88;;;10.10;99.90;;;;;;5068435;28;20499;-71
2023/10/28 00:18:24;;;;;;;21.40;12.55;;;10.10;99.90;;;;;;5065752;28;20088;-71
2023/10/28 00:20:50;;;;;;;19.60;13.23;;;10.10;99.90;;;;;;5072994;28;20401;-70
2023/10/28 00:23:16;;;;;;;21.58;14.20;;;10.10;99.90;;;;;;5071706;28;20043;-71
2023/10/28 00:25:43;;;;;;;20.55;12.75;;;10.10;99.90;;;;;;5091011;28;20063;-71
2023/10/28 00:28:09;;;;;;;20.83;13.18;;;10.20;99.90;;;;;;5085656;28;20052;-71
2023/10/28 00:30:38;;;;;;;20.60;13.60;;;10.10;99.90;;;;;;5078951;28;20502;-73
2023/10/28 00:33:04;;;;;;;20.77;13.00;;;10.10;99.90;;;;;;5091384;28;20044;-71
2023/10/28 00:35:30;;;;;;;22.10;12.82;;;10.10;99.90;;;;;;5083812;28;20079;-71
2023/10/28 00:37:57;;;;;;;20.88;13.23;;;10.10;99.90;;;;;;5092774;28;20044;-71
2023/10/28 00:40:26;;;;;;;22.15;15.07;;;10.20;99.90;;;;;;5081322;28;20055;-71
2023/10/28 00:42:52;;;;;;;29.33;15.73;;;10.10;99.90;;;;;;5094484;28;20135;-71
2023/10/28 00:45:18;;;;;;;21.50;13.93;;;10.10;99.90;;;;;;5045800;28;20126;-71
2023/10/28 00:47:45;;;;;;;20.58;12.95;;;10.10;99.90;;;;;;5074248;28;20041;-71
2023/10/28 00:50:14;;;;;;;20.90;13.40;;;10.20;99.90;;;;;;5078591;28;20122;-71
2023/10/28 00:52:45;;;;;;;22.70;15.50;;;10.20;99.90;;;;;;5093977;28;20532;-72
2023/10/28 00:55:12;;;;;;;26.23;15.02;;;10.20;99.90;;;;;;5093741;28;20040;-71
2023/10/28 00:57:40;;;;;;;24.95;15.85;;;10.20;99.90;;;;;;5085924;28;20187;-74
2023/10/28 01:00:08;;;;;;;26.52;16.42;;;10.20;99.90;;;;;;5070770;28;20490;-71
2023/10/28 01:02:39;;;;;;;26.13;17.20;;;10.20;99.90;;;;;;5073946;28;20044;-72
2023/10/28 01:05:06;;;;;;;25.10;16.15;;;10.20;99.90;;;;;;5073789;28;20573;-71
2023/10/28 01:07:33;;;;;;;31.17;18.17;;;10.20;99.90;;;;;;5056221;28;20055;-71
2023/10/28 01:09:59;;;;;;;29.40;18.38;;;10.20;99.90;;;;;;5073018;28;20044;-71
2023/10/28 01:12:26;;;;;;;26.30;16.48;;;10.20;99.90;;;;;;5070769;28;20159;-71
2023/10/28 01:14:52;;;;;;;32.55;19.75;;;10.20;99.90;;;;;;5073190;28;20040;-71
2023/10/28 01:17:21;;;;;;;28.42;16.27;;;10.20;99.90;;;;;;5074097;28;20137;-73
2023/10/28 01:19:47;;;;;;;29.30;18.60;;;10.20;99.90;;;;;;5077147;28;20036;-71
2023/10/28 01:22:13;;;;;;;31.85;19.73;;;10.30;99.90;;;;;;5088265;28;20051;-71
2023/10/28 01:24:39;;;;;;;36.55;20.30;;;10.20;99.90;;;;;;5074915;28;20406;-72
2023/10/28 01:27:05;;;;;;;30.73;19.13;;;10.20;99.90;;;;;;5071610;28;20052;-71
2023/10/28 01:29:33;;;;;;;30.88;19.80;;;10.30;99.90;;;;;;5091080;28;20048;-71
2023/10/28 01:31:59;;;;;;;32.65;20.65;;;10.30;99.90;;;;;;5084914;28;20074;-72
2023/10/28 01:34:24;;;;;;;37.30;22.48;;;10.30;99.90;;;;;;5093799;28;20512;-71
2023/10/28 01:36:50;;;;;;;38.88;21.83;;;10.30;99.90;;;;;;5084303;28;20041;-71
2023/10/28 01:39:16;;;;;;;37.30;22.48;;;10.30;99.90;;;;;;5075493;28;20048;-71
2023/10/28 01:41:42;;;;;;;34.17;21.33;;;10.30;99.90;;;;;;5080522;28;20131;-72
2023/10/28 01:44:09;;;;;;;34.95;20.95;;;10.30;99.90;;;;;;5091651;28;20468;-72
2023/10/28 01:46:34;;;;;;;38.17;22.60;;;10.30;99.90;;;;;;5080441;28;20064;-72
2023/10/28 01:49:00;;;;;;;41.67;23.60;;;10.30;99.90;;;;;;5079149;28;20076;-71
2023/10/28 01:51:26;;;;;;;38.08;22.27;;;10.30;99.90;;;;;;5084270;28;20048;-72
2023/10/28 01:53:52;;;;;;;39.63;24.23;;;10.40;99.90;;;;;;5093004;28;20048;-72
2023/10/28 01:56:18;;;;;;;42.88;22.98;;;10.40;99.90;;;;;;5073773;28;20088;-72
2023/10/28 01:58:43;;;;;;;39.50;23.17;;;10.40;99.90;;;;;;5083640;28;20051;-72
2023/10/28 02:01:09;;;;;;;38.92;22.80;;;10.40;99.90;;;;;;5084121;28;20408;-72
2023/10/28 02:03:35;;;;;;;38.25;22.27;;;10.40;99.90;;;;;;5078561;28;20052;-72
2023/10/28 02:06:01;;;;;;;39.22;23.25;;;10.40;99.90;;;;;;5091578;28;20071;-72
2023/10/28 02:08:27;;;;;;;48.80;24.70;;;10.40;99.90;;;;;;5076063;28;20073;-72
2023/10/28 02:10:52;;;;;;;40.40;23.63;;;10.40;99.90;;;;;;5075302;28;20529;-72
2023/10/28 02:13:18;;;;;;;44.55;24.40;;;10.40;99.90;;;;;;5092553;28;20048;-73
2023/10/28 02:15:51;;;;;;;40.00;24.60;;;10.40;99.90;;;;;;5085842;28;20056;-71
2023/10/28 02:18:22;;;;;;;42.65;24.90;;;10.40;99.90;;;;;;5072505;28;20060;-71
2023/10/28 02:20:48;;;;;;;44.38;23.90;;;10.40;99.90;;;;;;5079850;28;20478;-71
2023/10/28 02:23:14;;;;;;;44.85;25.38;;;10.40;99.90;;;;;;5092331;28;20089;-71
2023/10/28 02:25:43;;;;;;;39.20;23.75;;;10.40;99.90;;;;;;5093068;28;20042;-72
2023/10/28 02:28:10;;;;;;;44.13;26.17;;;10.40;99.90;;;;;;5073980;28;20072;-71
2023/10/28 02:30:40;;;;;;;49.20;23.42;;;10.40;99.90;;;;;;5076025;28;20044;-72
2023/10/28 02:33:06;;;;;;;44.25;25.23;;;10.40;99.90;;;;;;5075071;28;20043;-71
2023/10/28 02:35:35;;;;;;;47.30;26.45;;;10.40;99.90;;;;;;5092858;28;20044;-71
2023/10/28 02:38:01;;;;;;;46.53;25.30;;;10.40;99.90;;;;;;5092135;28;20048;-71
2023/10/28 02:40:27;;;;;;;41.90;24.85;;;10.40;99.90;;;;;;5076275;28;20051;-71
2023/10/28 02:42:53;;;;;;;43.22;24.38;;;10.40;99.90;;;;;;5084976;28;20137;-71
2023/10/28 02:45:19;;;;;;;40.90;23.80;;;10.40;99.90;;;;;;5088899;28;20079;-71
2023/10/28 02:47:44;;;;;;;44.30;25.00;;;10.40;99.90;;;;;;5092745;28;20492;-71
2023/10/28 02:50:12;;;;;;;39.05;21.65;;;10.30;99.90;;;;;;5083355;28;20449;-72
2023/10/28 02:52:38;;;;;;;44.45;26.13;;;10.30;99.90;;;;;;5085375;28;20124;-72
2023/10/28 02:55:05;;;;;;;42.80;24.60;;;10.20;99.90;;;;;;5089879;28;20051;-72
2023/10/28 02:57:32;;;;;;;40.72;24.70;;;10.20;99.90;;;;;;5092480;28;20073;-72
2023/10/28 02:59:58;;;;;;;43.95;24.88;;;10.20;99.90;;;;;;5084487;28;20040;-74
2023/10/28 03:02:23;;;;;;;46.65;26.00;;;10.20;99.90;;;;;;5078193;28;20048;-73
2023/10/28 03:04:49;;;;;;;49.03;25.27;;;10.20;99.90;;;;;;5082103;28;20144;-72
2023/10/28 03:07:15;;;;;;;43.63;24.55;;;10.10;99.90;;;;;;5089908;28;20123;-72
2023/10/28 03:09:40;;;;;;;43.65;26.63;;;10.10;99.90;;;;;;5091273;28;20133;-72
2023/10/28 03:12:06;;;;;;;38.10;24.35;;;10.10;99.90;;;;;;5085153;28;20044;-72
2023/10/28 03:14:32;;;;;;;39.22;23.58;;;10.10;99.90;;;;;;5091018;28;20127;-72
2023/10/28 03:16:59;;;;;;;41.25;23.10;;;10.10;99.90;;;;;;5083551;28;20049;-72
2023/10/28 03:19:24;;;;;;;40.53;23.70;;;10.00;99.90;;;;;;5091817;28;20235;-72
2023/10/28 03:21:50;;;;;;;32.88;19.45;;;10.00;99.90;;;;;;5088004;28;20123;-72
2023/10/28 03:24:16;;;;;;;40.05;23.73;;;10.10;99.90;;;;;;5085606;28;20127;-72
2023/10/28 03:26:42;;;;;;;37.50;23.38;;;10.00;99.90;;;;;;5092193;28;20035;-72
2023/10/28 03:29:07;;;;;;;33.00;20.60;;;10.00;99.90;;;;;;5087254;28;20043;-73
2023/10/28 03:31:33;;;;;;;33.67;22.58;;;10.00;99.90;;;;;;5081644;28;20076;-72
2023/10/28 03:33:59;;;;;;;38.95;22.25;;;10.00;99.90;;;;;;5074735;28;20115;-72
2023/10/28 03:36:25;;;;;;;34.70;22.42;;;10.00;99.90;;;;;;5082352;28;20045;-72
2023/10/28 03:38:51;;;;;;;34.88;22.40;;;10.00;99.90;;;;;;5074088;28;20055;-72
2023/10/28 03:41:16;;;;;;;35.13;21.27;;;10.00;99.90;;;;;;5090003;28;20040;-72
2023/10/28 03:43:42;;;;;;;36.25;21.17;;;10.00;99.90;;;;;;5058518;28;20044;-72
2023/10/28 03:46:18;;;;;;;35.75;21.80;;;10.00;99.90;;;;;;5083698;28;20075;-72
2023/10/28 03:48:44;;;;;;;34.15;21.25;;;10.00;99.90;;;;;;5091685;28;20052;-72
2023/10/28 03:51:10;;;;;;;28.52;19.27;;;10.00;99.90;;;;;;5091279;28;20051;-72
2023/10/28 03:53:36;;;;;;;32.60;21.98;;;9.90;99.90;;;;;;5079939;28;20382;-73
2023/10/28 03:56:02;;;;;;;35.22;20.67;;;10.00;99.90;;;;;;5080927;28;20109;-72
2023/10/28 03:58:28;;;;;;;35.28;19.25;;;10.00;99.90;;;;;;5089503;28;20056;-72
2023/10/28 04:00:55;;;;;;;35.63;20.13;;;10.00;99.90;;;;;;5090725;28;20044;-72
2023/10/28 04:03:21;;;;;;;30.45;18.13;;;10.00;99.90;;;;;;5078951;28;20033;-72
2023/10/28 04:05:47;;;;;;;34.67;20.98;;;9.90;99.90;;;;;;5071111;28;20040;-73
2023/10/28 04:08:13;;;;;;;33.03;20.50;;;9.90;99.90;;;;;;5094219;28;20052;-72
2023/10/28 04:10:39;;;;;;;32.90;19.08;;;9.90;99.90;;;;;;5077611;28;20048;-72
2023/10/28 04:13:05;;;;;;;33.95;20.55;;;9.90;99.90;;;;;;5084713;28;20113;-71
2023/10/28 04:15:31;;;;;;;32.30;18.48;;;9.90;99.90;;;;;;5085221;28;20490;-70
2023/10/28 04:17:57;;;;;;;34.08;20.25;;;9.90;99.90;;;;;;5094459;28;20054;-71
2023/10/28 04:20:26;;;;;;;30.65;19.35;;;9.90;99.90;;;;;;5085481;28;20116;-71
2023/10/28 04:22:52;;;;;;;39.70;20.67;;;9.90;99.90;;;;;;5055083;28;20052;-73
2023/10/28 04:25:18;;;;;;;31.95;17.90;;;9.90;99.90;;;;;;5072572;28;20039;-73
2023/10/28 04:27:44;;;;;;;33.95;19.50;;;9.90;99.90;;;;;;5070334;28;20079;-73
2023/10/28 04:30:10;;;;;;;28.20;19.00;;;10.00;99.90;;;;;;5073779;28;20123;-74
2023/10/28 04:32:40;;;;;;;34.25;20.13;;;9.90;99.90;;;;;;5074870;28;20048;-73
2023/10/28 04:35:06;;;;;;;29.67;19.02;;;9.90;99.90;;;;;;5083204;28;20055;-72
2023/10/28 04:37:31;;;;;;;30.17;19.25;;;10.00;99.90;;;;;;5076178;28;20643;-71
2023/10/28 04:39:57;;;;;;;32.63;18.88;;;9.90;99.90;;;;;;5070190;28;20375;-71
2023/10/28 04:42:23;;;;;;;35.50;20.23;;;9.90;99.90;;;;;;5065321;28;20056;-71
2023/10/28 04:44:49;;;;;;;27.15;19.25;;;9.90;99.90;;;;;;5072613;28;20071;-71
2023/10/28 04:47:14;;;;;;;35.50;20.90;;;10.00;99.90;;;;;;5069219;28;20064;-73
2023/10/28 04:49:43;;;;;;;29.77;18.88;;;9.90;99.90;;;;;;5051835;28;20067;-71
2023/10/28 04:52:09;;;;;;;32.70;19.40;;;9.90;99.90;;;;;;5073017;28;20052;-71
2023/10/28 04:54:35;;;;;;;37.35;19.42;;;9.90;99.90;;;;;;5068744;28;20682;-71
2023/10/28 04:57:03;;;;;;;39.70;19.63;;;9.90;99.90;;;;;;5052352;28;20052;-71
2023/10/28 04:59:29;;;;;;;32.78;19.05;;;9.90;99.90;;;;;;5073949;28;20045;-72
2023/10/28 05:01:56;;;;;;;30.98;18.98;;;9.90;99.90;;;;;;5072177;28;20060;-71
2023/10/28 05:04:24;;;;;;;32.08;20.23;;;10.00;99.90;;;;;;5071654;28;20041;-72
2023/10/28 05:06:51;;;;;;;37.97;20.52;;;9.90;99.90;;;;;;5055730;28;20498;-72
2023/10/28 05:09:20;;;;;;;34.33;19.00;;;9.90;99.90;;;;;;5073712;28;20060;-73
2023/10/28 05:11:46;;;;;;;27.70;17.10;;;9.90;99.90;;;;;;5074180;28;20080;-72
2023/10/28 05:14:14;;;;;;;31.40;17.90;;;9.90;99.90;;;;;;5073191;28;20053;-72
2023/10/28 05:16:39;;;;;;;32.92;18.27;;;9.90;99.90;;;;;;5072486;28;20052;-72
2023/10/28 05:19:06;;;;;;;33.40;19.35;;;9.90;99.90;;;;;;5071152;28;20059;-72
2023/10/28 05:21:32;;;;;;;35.88;19.85;;;9.90;99.90;;;;;;5093503;28;20136;-72
2023/10/28 05:23:57;;;;;;;34.92;18.80;;;9.90;99.90;;;;;;5094240;28;20089;-72
2023/10/28 05:26:23;;;;;;;36.78;20.00;;;9.90;99.90;;;;;;5084204;28;20063;-72
2023/10/28 05:28:51;;;;;;;35.30;19.55;;;10.00;99.90;;;;;;5066245;28;20055;-72
2023/10/28 05:31:17;;;;;;;29.55;17.30;;;10.00;99.90;;;;;;5089824;28;20051;-72
2023/10/28 05:33:43;;;;;;;32.63;17.23;;;10.00;99.90;;;;;;5075604;28;20093;-72
2023/10/28 05:36:08;;;;;;;35.17;19.33;;;10.00;99.90;;;;;;5088200;28;20539;-73
2023/10/28 05:38:34;;;;;;;36.97;19.55;;;10.00;99.90;;;;;;5088982;28;20048;-71
2023/10/28 05:41:00;;;;;;;35.00;18.20;;;10.00;99.90;;;;;;5084508;28;20051;-72
2023/10/28 05:43:25;;;;;;;37.92;19.38;;;10.00;99.90;;;;;;5090112;28;20044;-72
2023/10/28 05:45:51;;;;;;;31.98;18.92;;;10.00;99.90;;;;;;5092745;28;20047;-71
2023/10/28 05:48:17;;;;;;;37.88;19.95;;;10.00;99.90;;;;;;5091878;28;20047;-72
2023/10/28 05:50:42;;;;;;;33.13;19.30;;;10.00;99.90;;;;;;5065376;28;20233;-72
2023/10/28 05:53:08;;;;;;;33.65;18.40;;;10.10;99.90;;;;;;5093701;28;20060;-72
2023/10/28 05:55:34;;;;;;;28.42;18.88;;;10.10;99.90;;;;;;5063915;28;20052;-72
2023/10/28 05:58:00;;;;;;;29.75;17.83;;;10.10;99.90;;;;;;5083082;28;20044;-72
2023/10/28 06:00:28;;;;;;;30.35;17.95;;;10.10;99.90;;;;;;5077735;28;20041;-73
2023/10/28 06:02:54;;;;;;;32.22;18.92;;;10.10;99.90;;;;;;5083718;28;20080;-72
2023/10/28 06:05:20;;;;;;;33.80;18.25;;;10.00;99.90;;;;;;5092039;28;20533;-72
2023/10/28 06:07:49;;;;;;;31.10;16.08;;;10.10;99.90;;;;;;5081399;28;20497;-72
2023/10/28 06:10:15;;;;;;;31.40;16.27;;;10.00;99.90;;;;;;5081151;28;20052;-72
2023/10/28 06:12:41;;;;;;;37.58;19.20;;;10.10;99.90;;;;;;5092754;28;20040;-72
2023/10/28 06:15:07;;;;;;;31.95;17.90;;;10.10;99.90;;;;;;5059344;28;20048;-72
2023/10/28 06:17:35;;;;;;;32.17;20.25;;;10.10;99.90;;;;;;5089929;28;20465;-72
2023/10/28 06:20:01;;;;;;;33.00;18.83;;;10.00;99.90;;;;;;5079589;28;20472;-72
2023/10/28 06:22:27;;;;;;;34.35;17.80;;;10.10;99.90;;;;;;5086040;28;20055;-73
2023/10/28 06:24:54;;;;;;;34.28;16.60;;;10.00;99.90;;;;;;5087149;28;20394;-71
2023/10/28 06:27:22;;;;;;;33.05;18.38;;;10.00;99.90;;;;;;5083083;28;20478;-72
2023/10/28 06:29:47;;;;;;;23.70;13.57;;;10.10;99.90;;;;;;5078082;28;20044;-72
2023/10/28 06:32:13;;;;;;;32.80;19.00;;;10.10;99.90;;;;;;5073507;28;20051;-72
2023/10/28 06:34:39;;;;;;;34.05;18.40;;;10.10;99.90;;;;;;5084461;28;20424;-72
2023/10/28 06:37:04;;;;;;;35.67;18.98;;;10.10;99.90;;;;;;5085864;28;20070;-72
2023/10/28 06:39:34;;;;;;;35.47;18.65;;;10.10;99.90;;;;;;5080298;28;20044;-74
2023/10/28 06:42:01;;;;;;;35.60;18.58;;;10.10;99.90;;;;;;5075190;28;20150;-71
2023/10/28 06:44:27;;;;;;;36.78;17.77;;;10.10;99.90;;;;;;5074643;28;20102;-71
2023/10/28 06:46:53;;;;;;;24.75;16.80;;;10.10;99.90;;;;;;5081937;28;20047;-72
2023/10/28 06:49:19;;;;;;;28.08;17.02;;;10.10;99.90;;;;;;5074729;28;20477;-71
2023/10/28 06:51:45;;;;;;;29.33;15.65;;;10.10;99.90;;;;;;5074612;28;20108;-72
2023/10/28 06:54:11;;;;;;;26.83;17.13;;;10.20;99.90;;;;;;5067733;28;20483;-72
2023/10/28 06:56:37;;;;;;;36.13;17.98;;;10.20;99.90;;;;;;5064134;28;20041;-72
2023/10/28 06:59:02;;;;;;;29.73;16.30;;;10.20;99.90;;;;;;5072712;28;20079;-72
2023/10/28 07:01:28;;;;;;;30.35;16.98;;;10.20;99.90;;;;;;5071822;28;20037;-72
2023/10/28 07:03:54;;;;;;;28.67;15.32;;;10.20;99.90;;;;;;5071182;28;20047;-72
2023/10/28 07:06:20;;;;;;;30.75;15.30;;;10.20;99.90;;;;;;5072111;28;20040;-72
2023/10/28 07:08:46;;;;;;;27.38;15.50;;;10.20;99.90;;;;;;5069725;28;20047;-72
2023/10/28 07:11:13;;;;;;;25.15;14.13;;;10.20;99.90;;;;;;5069948;28;20040;-72
2023/10/28 07:13:39;;;;;;;32.85;13.95;;;10.30;99.90;;;;;;5071281;28;20106;-73
2023/10/28 07:16:06;;;;;;;21.98;14.73;;;10.30;99.90;;;;;;5071510;28;20063;-72
2023/10/28 07:18:32;;;;;;;26.83;14.52;;;10.30;99.90;;;;;;5071839;28;20063;-72
2023/10/28 07:21:00;;;;;;;22.20;13.65;;;10.30;99.90;;;;;;5083958;28;20044;-72
2023/10/28 07:23:26;;;;;;;24.88;12.60;;;10.40;99.90;;;;;;5072470;28;20489;-72
2023/10/28 07:25:56;;;;;;;24.08;13.00;;;10.40;99.90;;;;;;5085080;28;20062;-72
2023/10/28 07:28:22;;;;;;;17.40;12.30;;;10.40;99.90;;;;;;5082889;28;20047;-72
2023/10/28 07:30:51;;;;;;;16.83;10.68;;;10.40;99.90;;;;;;5071093;28;20052;-72
2023/10/28 07:33:20;;;;;;;11.65;7.75;;;10.40;99.90;;;;;;5071258;28;20116;-72
2023/10/28 07:35:50;;;;;;;18.88;9.95;;;10.40;99.90;;;;;;5070545;28;20098;-72
2023/10/28 07:38:17;;;;;;;24.40;11.15;;;10.50;99.90;;;;;;5069184;28;20453;-72
2023/10/28 07:40:44;;;;;;;17.65;10.20;;;10.50;99.90;;;;;;5070514;28;20102;-72
2023/10/28 07:43:11;;;;;;;12.60;6.75;;;10.40;99.90;;;;;;5071200;28;20044;-71
2023/10/28 07:45:38;;;;;;;13.95;8.60;;;10.50;99.90;;;;;;5071433;28;20119;-71
2023/10/28 07:48:06;;;;;;;15.88;9.38;;;10.50;99.90;;;;;;5069454;28;20036;-73
2023/10/28 07:50:36;;;;;;;18.33;9.98;;;10.50;99.90;;;;;;5066959;28;20410;-72
2023/10/28 07:53:04;;;;;;;12.32;7.95;;;10.50;99.90;;;;;;5080723;28;20173;-72
2023/10/28 07:55:30;;;;;;;14.70;7.82;;;10.50;99.90;;;;;;5071135;28;20117;-72
2023/10/28 07:57:56;;;;;;;16.70;8.57;;;10.50;99.90;;;;;;5071031;28;20119;-73
2023/10/28 08:00:23;;;;;;;12.82;7.70;;;10.60;99.90;;;;;;5071225;28;20123;-72
2023/10/28 08:02:51;;;;;;;15.80;8.05;;;10.60;99.90;;;;;;5069629;28;20413;-73
2023/10/28 08:05:17;;;;;;;13.98;8.00;;;10.60;99.90;;;;;;5069780;28;20052;-73
2023/10/28 08:07:43;;;;;;;13.38;8.10;;;10.60;99.90;;;;;;5071652;28;20056;-74
2023/10/28 08:10:09;;;;;;;9.35;7.30;;;10.60;99.90;;;;;;5070063;28;20547;-73
2023/10/28 08:12:36;;;;;;;14.73;7.70;;;10.70;99.90;;;;;;5070147;28;20141;-73
2023/10/28 08:15:05;;;;;;;10.95;7.28;;;10.70;99.90;;;;;;5050187;28;20060;-72
2023/10/28 08:17:31;;;;;;;13.23;6.68;;;10.70;99.90;;;;;;5070661;28;20157;-72
2023/10/28 08:19:57;;;;;;;12.57;6.43;;;10.70;99.90;;;;;;5073073;28;20432;-72
2023/10/28 08:22:24;;;;;;;9.57;6.55;;;10.70;99.90;;;;;;5084322;28;20101;-72
2023/10/28 08:24:50;;;;;;;12.75;5.78;;;10.70;99.90;;;;;;5069727;28;20051;-75
2023/10/28 08:27:16;;;;;;;7.85;4.53;;;11.00;99.90;;;;;;5090158;28;20051;-72
2023/10/28 08:29:43;;;;;;;7.25;5.97;;;11.60;99.90;;;;;;5091286;28;20130;-72
2023/10/28 08:32:09;;;;;;;10.32;5.38;;;12.30;99.90;;;;;;5073105;28;20052;-71
2023/10/28 08:34:35;;;;;;;8.82;5.53;;;12.80;99.90;;;;;;5089376;28;20129;-72
2023/10/28 08:37:02;;;;;;;6.82;5.60;;;13.00;99.90;;;;;;5070354;28;20069;-73
2023/10/28 08:39:29;;;;;;;6.60;4.25;;;12.80;99.90;;;;;;5066481;28;20127;-72
2023/10/28 08:41:56;;;;;;;7.20;5.28;;;12.60;99.90;;;;;;5049273;28;20057;-73
2023/10/28 08:44:27;;;;;;;11.20;5.25;;;12.40;99.90;;;;;;5065650;28;20130;-73
2023/10/28 08:46:56;;;;;;;8.20;5.03;;;12.00;99.90;;;;;;5072485;28;20041;-73
2023/10/28 08:49:25;;;;;;;9.98;4.90;;;11.90;99.90;;;;;;5061223;28;20094;-74
2023/10/28 08:51:58;;;;;;;8.93;5.78;;;11.80;99.90;;;;;;5080842;28;20040;-74
2023/10/28 08:54:26;;;;;;;8.55;4.90;;;11.70;99.90;;;;;;5077046;28;20052;-74
2023/10/28 08:56:56;;;;;;;11.55;5.93;;;11.70;99.90;;;;;;5073112;28;20043;-74
2023/10/28 08:59:22;;;;;;;9.85;6.20;;;11.60;99.90;;;;;;5074754;28;20105;-74
2023/10/28 09:01:48;;;;;;;10.23;5.50;;;11.50;99.90;;;;;;5073785;28;20127;-74
2023/10/28 09:04:21;;;;;;;8.63;5.78;;;11.50;99.90;;;;;;5074198;28;20109;-74
2023/10/28 09:06:48;;;;;;;9.38;5.70;;;11.50;99.90;;;;;;5074109;28;20040;-74
2023/10/28 09:09:17;;;;;;;8.80;5.57;;;11.50;99.90;;;;;;5069077;28;20043;-74
2023/10/28 09:11:42;;;;;;;8.15;5.70;;;11.60;99.90;;;;;;5067224;28;20055;-75
2023/10/28 09:14:08;;;;;;;9.52;5.00;;;11.50;99.90;;;;;;5071907;28;20393;-74
2023/10/28 09:16:35;;;;;;;9.75;5.78;;;11.50;99.90;;;;;;5073970;28;20383;-73
2023/10/28 09:19:03;;;;;;;7.63;5.68;;;11.50;99.90;;;;;;5071839;28;20056;-73
2023/10/28 09:21:29;;;;;;;8.65;5.03;;;11.40;99.90;;;;;;5075866;28;20044;-74
2023/10/28 09:24:01;;;;;;;9.20;5.47;;;11.40;99.90;;;;;;5080008;28;20037;-74
2023/10/28 09:26:28;;;;;;;9.07;5.18;;;11.40;99.90;;;;;;5075667;28;20048;-74
2023/10/28 09:28:54;;;;;;;9.50;5.97;;;11.40;99.90;;;;;;5069648;28;20044;-73
2023/10/28 09:31:28;;;;;;;9.13;4.80;;;11.40;99.90;;;;;;5063215;28;20071;-73
2023/10/28 09:33:55;;;;;;;7.57;4.87;;;11.40;99.90;;;;;;5073769;28;20040;-74
2023/10/28 09:36:21;;;;;;;8.93;4.72;;;11.50;99.90;;;;;;5072144;28;20052;-76
2023/10/28 09:38:47;;;;;;;8.73;5.32;;;11.50;99.90;;;;;;5066245;28;20037;-75
2023/10/28 09:41:14;;;;;;;8.43;4.95;;;11.50;99.90;;;;;;5060478;28;20053;-75
2023/10/28 09:43:40;;;;;;;9.18;4.90;;;11.50;99.90;;;;;;5073764;28;20044;-75
2023/10/28 09:46:07;;;;;;;11.57;5.18;;;11.60;99.90;;;;;;5072081;28;20047;-75
2023/10/28 09:48:38;;;;;;;10.90;4.65;;;11.60;99.90;;;;;;5073295;28;20045;-75
2023/10/28 09:51:05;;;;;;;8.57;4.50;;;11.60;99.90;;;;;;5053176;28;20063;-75
2023/10/28 09:53:35;;;;;;;7.75;4.50;;;11.60;99.90;;;;;;5055434;28;20383;-75
2023/10/28 09:56:02;;;;;;;9.10;4.47;;;11.70;99.90;;;;;;5073192;28;20103;-75
2023/10/28 09:58:46;;;;;;;8.15;4.32;;;11.70;99.90;;;;;;5072071;28;20049;-74
2023/10/28 10:01:48;;;;;;;8.67;3.90;;;11.70;99.90;;;;;;5070496;28;20193;-75
2023/10/28 10:04:32;;;;;;;8.20;3.78;;;11.70;99.90;;;;;;5026008;28;20124;-75
2023/10/28 10:06:58;;;;;;;10.00;4.05;;;11.70;99.90;;;;;;5066575;28;20044;-74
2023/10/28 10:09:23;;;;;;;10.32;4.68;;;11.70;99.90;;;;;;5066406;28;20059;-74
2023/10/28 10:11:50;;;;;;;6.50;4.10;;;11.70;99.90;;;;;;5072166;28;20048;-74
2023/10/28 10:14:18;;;;;;;6.93;4.28;;;11.80;99.90;;;;;;5072247;28;20123;-74
2023/10/28 10:16:52;;;;;;;8.23;3.97;;;11.70;99.90;;;;;;5072067;28;20114;-74
2023/10/28 10:19:30;;;;;;;10.40;4.47;;;11.70;99.90;;;;;;5072316;28;20048;-74
2023/10/28 10:21:56;;;;;;;10.93;4.30;;;11.80;99.90;;;;;;5083350;28;20067;-74
2023/10/28 10:24:22;;;;;;;7.35;4.32;;;11.80;99.90;;;;;;5054180;28;20123;-74
2023/10/28 10:26:59;;;;;;;11.98;4.40;;;11.80;99.90;;;;;;5061731;28;20124;-74
2023/10/28 10:29:26;;;;;;;6.78;3.40;;;11.80;99.90;;;;;;5072186;28;20052;-76
2023/10/28 10:31:53;;;;;;;8.30;4.18;;;11.80;99.90;;;;;;5071377;28;20131;-75
2023/10/28 10:34:33;;;;;;;6.32;3.70;;;11.80;99.90;;;;;;5063962;28;20040;-75
2023/10/28 10:37:00;;;;;;;8.43;4.13;;;11.80;99.90;;;;;;5065768;28;20044;-75
2023/10/28 10:39:26;;;;;;;8.88;3.67;;;11.80;99.90;;;;;;5060030;28;20040;-75
2023/10/28 10:41:56;;;;;;;10.02;4.20;;;11.80;99.90;;;;;;5075895;28;20048;-75
2023/10/28 10:44:37;;;;;;;11.98;3.78;;;11.70;99.90;;;;;;5070913;28;20048;-75
2023/10/28 10:47:05;;;;;;;5.72;2.70;;;11.70;99.90;;;;;;5070319;28;20094;-73
2023/10/28 10:49:32;;;;;;;9.93;4.25;;;11.70;99.90;;;;;;5063241;28;20044;-74
2023/10/28 10:52:01;;;;;;;11.98;4.07;;;11.80;99.90;;;;;;5072289;28;20083;-74
2023/10/28 10:54:31;;;;;;;6.15;3.38;;;11.80;99.90;;;;;;5067358;28;20044;-74
2023/10/28 10:56:58;;;;;;;8.55;3.42;;;11.90;99.90;;;;;;5072792;28;20044;-72
2023/10/28 10:59:29;;;;;;;7.03;3.88;;;11.90;99.90;;;;;;5078755;28;20070;-73
2023/10/28 11:01:56;;;;;;;8.50;3.70;;;12.00;99.90;;;;;;5079035;28;20048;-75
2023/10/28 11:04:23;;;;;;;8.35;3.45;;;12.00;99.90;;;;;;5073960;28;20055;-73
2023/10/28 11:06:51;;;;;;;9.70;3.40;;;12.10;99.90;;;;;;5054513;28;20490;-74
2023/10/28 11:09:17;;;;;;;7.15;3.40;;;12.10;99.90;;;;;;5066661;28;20509;-73
2023/10/28 11:11:44;;;;;;;9.00;3.50;;;12.10;99.90;;;;;;5061760;28;20036;-73
2023/10/28 11:14:09;;;;;;;8.10;3.38;;;12.10;99.90;;;;;;5071153;28;20129;-74
2023/10/28 11:16:38;;;;;;;8.23;3.67;;;12.10;99.90;;;;;;5069966;28;20092;-74
2023/10/28 11:19:04;;;;;;;12.63;3.75;;;12.10;99.90;;;;;;5070629;28;20055;-74
2023/10/28 11:21:32;;;;;;;14.10;3.67;;;12.10;99.90;;;;;;5041283;28;20494;-74
2023/10/28 11:23:58;;;;;;;8.52;3.97;;;12.10;99.90;;;;;;5063179;28;20078;-73
2023/10/28 11:26:24;;;;;;;8.48;3.70;;;12.10;99.90;;;;;;5071937;28;20390;-74
2023/10/28 11:28:50;;;;;;;8.48;3.42;;;12.10;99.90;;;;;;5081580;28;20059;-73
2023/10/28 11:31:20;;;;;;;9.30;2.60;;;12.10;99.90;;;;;;5077156;28;20048;-74
2023/10/28 11:33:52;;;;;;;8.70;3.33;;;12.20;99.90;;;;;;5052610;28;20158;-73
2023/10/28 11:36:18;;;;;;;8.23;3.83;;;12.20;99.90;;;;;;5070091;28;20045;-73
2023/10/28 11:38:44;;;;;;;6.10;3.22;;;12.10;99.90;;;;;;5088024;28;20054;-73
2023/10/28 11:41:10;;;;;;;8.52;3.33;;;12.10;99.90;;;;;;5068616;28;20048;-73
2023/10/28 11:43:37;;;;;;;7.03;3.53;;;12.20;99.90;;;;;;5063661;28;20045;-76
2023/10/28 11:46:03;;;;;;;12.80;3.70;;;12.20;99.90;;;;;;5069982;28;20049;-72
2023/10/28 11:48:30;;;;;;;8.75;3.47;;;12.20;99.90;;;;;;5066528;28;20045;-73
2023/10/28 11:50:56;;;;;;;7.93;3.40;;;12.20;99.90;;;;;;5059831;28;20118;-75
2023/10/28 11:53:23;;;;;;;8.30;3.40;;;12.20;99.90;;;;;;5067165;28;20041;-76
2023/10/28 11:55:49;;;;;;;5.95;3.17;;;12.20;99.90;;;;;;5069070;28;20045;-75
2023/10/28 11:58:15;;;;;;;6.72;3.53;;;12.20;99.90;;;;;;5070816;28;20055;-73
2023/10/28 12:00:41;;;;;;;9.90;3.35;;;12.30;99.90;;;;;;5069142;28;20048;-72
2023/10/28 12:03:06;;;;;;;7.50;2.85;;;12.30;99.90;;;;;;5063436;28;20053;-73
2023/10/28 12:05:35;;;;;;;10.60;3.50;;;12.30;99.90;;;;;;5067851;28;20053;-73
2023/10/28 12:08:01;;;;;;;6.93;3.10;;;12.40;99.90;;;;;;5068962;28;20044;-72
2023/10/28 12:10:27;;;;;;;6.80;2.90;;;12.40;99.90;;;;;;5061348;28;20041;-73
2023/10/28 12:12:53;;;;;;;6.93;2.75;;;12.40;99.90;;;;;;5070456;28;20075;-72
2023/10/28 12:15:19;;;;;;;6.82;2.72;;;12.40;99.90;;;;;;5070067;28;20049;-73
2023/10/28 12:17:46;;;;;;;7.97;3.10;;;12.40;99.90;;;;;;5027212;28;20095;-72
2023/10/28 12:20:14;;;;;;;6.22;2.65;;;12.40;99.90;;;;;;5071475;28;20044;-72
2023/10/28 12:22:43;;;;;;;5.45;3.00;;;12.40;99.90;;;;;;5070430;28;20044;-72
2023/10/28 12:25:11;;;;;;;7.95;2.90;;;12.40;99.90;;;;;;5083941;28;20047;-73
2023/10/28 12:27:36;;;;;;;7.57;3.10;;;12.40;99.90;;;;;;5077205;28;20053;-73
2023/10/28 12:30:06;;;;;;;6.50;2.83;;;12.40;99.90;;;;;;5075832;28;20119;-73
2023/10/28 12:32:33;;;;;;;6.43;2.60;;;12.40;99.90;;;;;;5073335;28;20088;-73
2023/10/28 12:34:59;;;;;;;9.93;3.30;;;12.40;99.90;;;;;;5072877;28;20055;-73